Terminal Aerodrome Forecast
Issued by NWS

Home | Current Version | Previous Version | Text Only | Print | Product List | Glossary On
Versions: 1 2 3 4 5 6 7 8 9 10 11 12
000
FTUS43 KGRR 281700
TAFBTL
TAF
KBTL 281740Z 2818/2918 17010KT P6SM BKN150
     FM290200 16012KT P6SM OVC035 WS020/18050KT
     FM290600 16014G20KT 3SM -FZRAPL OVC012 WS020/20050KT
     FM290900 17014G20KT 3SM -FZRAPL OVC009
     FM291500 21010G16KT 3SM -FZRAPL OVC009
     FM291700 30012G22KT 1SM -SNPL OVC009=

USA.gov is the U.S. government's official web portal to all federal, state and local government web resources and services.